Time;durP1;ratioP1;P1;durP2;ratioP2;P2;SDS_P1;SDS_P2;PMS_P1;PMS_P2;Temp;Humidity;BMP_temperature;BMP_pressure;BME280_temperature;BME280_humidity;BME280_pressure;Samples;Min_cycle;Max_cycle;Signal;HPM_P1;HPM_P2
2023/09/14 00:00:43;;;;;;;5.90;4.30;;;18.30;99.90;;;;;;5072226;28;20474;-87
2023/09/14 00:03:10;;;;;;;5.80;4.70;;;18.30;99.90;;;;;;5072824;28;20470;-79
2023/09/14 00:05:39;;;;;;;6.50;4.87;;;18.20;99.90;;;;;;5071415;28;20478;-88
2023/09/14 00:08:07;;;;;;;9.67;6.30;;;18.30;99.90;;;;;;5058764;28;20467;-88
2023/09/14 00:10:36;;;;;;;7.07;6.10;;;18.30;99.90;;;;;;5058222;28;20463;-87
2023/09/14 00:13:05;;;;;;;310.37;242.87;;;18.30;99.90;;;;;;5053045;28;20467;-87
2023/09/14 00:15:32;;;;;;;297.87;241.33;;;18.30;99.90;;;;;;5064226;28;21029;-81
2023/09/14 00:18:00;;;;;;;343.37;271.37;;;18.50;99.90;;;;;;5071315;28;20935;-81
2023/09/14 00:20:30;;;;;;;261.50;205.17;;;18.60;99.90;;;;;;5064477;28;20471;-88
2023/09/14 00:22:58;;;;;;;289.07;226.90;;;18.90;99.90;;;;;;5053602;28;20507;-88
2023/09/14 00:25:26;;;;;;;287.63;223.87;;;19.10;99.90;;;;;;5063306;28;20502;-88
2023/09/14 00:27:54;;;;;;;257.63;193.27;;;19.30;99.90;;;;;;5071653;28;20785;-81
2023/09/14 00:30:23;;;;;;;197.07;152.87;;;19.50;99.90;;;;;;5071742;28;21050;-81
2023/09/14 00:32:52;;;;;;;229.23;178.10;;;19.70;99.90;;;;;;5071718;28;20538;-87
2023/09/14 00:35:20;;;;;;;160.80;128.30;;;19.90;99.90;;;;;;5072340;28;20470;-89
2023/09/14 00:37:47;;;;;;;136.03;102.17;;;20.00;99.90;;;;;;5072180;28;20480;-89
2023/09/14 00:40:15;;;;;;;80.17;63.60;;;20.20;99.90;;;;;;5072797;28;20461;-81
2023/09/14 00:42:46;;;;;;;62.73;52.47;;;20.30;99.90;;;;;;5071354;28;20498;-81
2023/09/14 00:45:16;;;;;;;70.03;61.37;;;20.50;99.90;;;;;;5075380;28;20485;-80
2023/09/14 00:47:50;;;;;;;84.13;66.33;;;20.60;99.90;;;;;;5074911;28;20524;-80
2023/09/14 00:50:18;;;;;;;115.63;95.53;;;20.70;99.90;;;;;;5067176;28;20486;-86
2023/09/14 00:52:48;;;;;;;108.33;86.53;;;20.80;99.90;;;;;;5075342;28;20497;-80
2023/09/14 00:55:18;;;;;;;65.10;53.30;;;20.80;99.90;;;;;;5075748;28;20558;-79
2023/09/14 00:57:47;;;;;;;90.50;71.53;;;20.90;99.90;;;;;;5070791;28;20975;-87
2023/09/14 01:00:16;;;;;;;92.13;74.70;;;20.90;99.90;;;;;;5074636;28;20956;-86
2023/09/14 01:02:45;;;;;;;104.80;87.50;;;20.90;99.90;;;;;;5074427;28;20466;-86
2023/09/14 01:05:16;;;;;;;84.63;64.60;;;20.90;99.90;;;;;;5073319;28;20466;-80
2023/09/14 01:07:43;;;;;;;73.13;56.70;;;20.90;99.90;;;;;;5074748;28;20967;-87
2023/09/14 01:10:10;;;;;;;84.40;64.30;;;20.90;99.90;;;;;;5074890;28;20558;-88
2023/09/14 01:12:39;;;;;;;36.70;31.10;;;20.90;99.90;;;;;;5074217;28;20477;-81
2023/09/14 01:15:10;;;;;;;30.60;26.03;;;20.90;99.90;;;;;;5077170;28;20512;-80
2023/09/14 01:17:44;;;;;;;27.20;22.90;;;20.90;99.90;;;;;;5075255;28;20541;-80
2023/09/14 01:20:33;;;;;;;18.50;15.10;;;20.90;99.90;;;;;;5075462;28;20513;-80
2023/09/14 01:23:10;;;;;;;16.87;14.17;;;20.90;99.90;;;;;;5075941;28;20533;-88
2023/09/14 01:25:42;;;;;;;11.43;9.87;;;20.80;99.90;;;;;;5074377;28;20466;-81
2023/09/14 01:28:11;;;;;;;11.57;10.17;;;20.80;99.90;;;;;;5074834;28;20856;-80
2023/09/14 01:30:38;;;;;;;17.90;16.00;;;20.80;99.90;;;;;;5075747;28;20474;-80
2023/09/14 01:33:06;;;;;;;36.20;26.33;;;20.70;99.90;;;;;;5076018;28;20849;-87
2023/09/14 01:35:37;;;;;;;5.73;3.60;;;20.70;99.90;;;;;;5076215;28;20490;-88
2023/09/14 01:38:07;;;;;;;3.80;3.50;;;20.70;99.90;;;;;;5067050;28;20486;-86
2023/09/14 01:40:36;;;;;;;3.33;3.03;;;20.50;99.90;;;;;;5074302;28;20471;-80
2023/09/14 01:43:05;;;;;;;3.50;3.00;;;20.20;99.90;;;;;;5075059;28;20474;-86
2023/09/14 01:45:34;;;;;;;3.47;2.80;;;20.00;99.90;;;;;;5075259;28;20478;-87
2023/09/14 01:48:01;;;;;;;4.07;3.67;;;19.90;99.90;;;;;;5066509;28;20489;-80
2023/09/14 01:50:28;;;;;;;8.37;4.03;;;19.60;99.90;;;;;;5075127;28;20999;-87
2023/09/14 01:52:56;;;;;;;3.90;2.90;;;19.40;99.90;;;;;;5075186;28;20477;-80
2023/09/14 01:55:23;;;;;;;5.47;3.27;;;19.20;99.90;;;;;;5087737;28;20805;-86
2023/09/14 01:57:50;;;;;;;4.60;2.90;;;19.00;99.90;;;;;;5107190;28;20491;-80
2023/09/14 02:00:19;;;;;;;3.57;3.27;;;18.90;99.90;;;;;;5094141;28;20461;-79
2023/09/14 02:02:46;;;;;;;6.70;3.80;;;18.70;99.90;;;;;;5094206;28;20470;-79
2023/09/14 02:05:13;;;;;;;3.73;3.20;;;18.60;99.90;;;;;;5098243;28;20600;-86
2023/09/14 02:07:40;;;;;;;5.53;3.70;;;18.50;99.90;;;;;;5096930;28;20466;-79
2023/09/14 02:10:08;;;;;;;4.50;3.73;;;18.40;99.90;;;;;;5096098;28;20539;-86
2023/09/14 02:12:35;;;;;;;4.43;3.20;;;18.20;99.90;;;;;;5101223;28;20520;-78
2023/09/14 02:15:02;;;;;;;6.83;3.30;;;18.10;99.90;;;;;;5088719;28;20474;-86
2023/09/14 02:17:30;;;;;;;4.40;3.60;;;18.00;99.90;;;;;;5083494;28;20477;-79
2023/09/14 02:19:59;;;;;;;3.47;3.17;;;17.90;99.90;;;;;;5080336;28;20463;-79
2023/09/14 02:22:28;;;;;;;4.67;3.70;;;17.80;99.90;;;;;;5083910;28;20465;-79
2023/09/14 02:24:55;;;;;;;13.77;10.43;;;17.80;99.90;;;;;;5075640;28;20474;-79
2023/09/14 02:27:22;;;;;;;5.63;4.30;;;17.70;99.90;;;;;;5075273;28;20545;-80
2023/09/14 02:29:53;;;;;;;4.97;3.60;;;17.60;99.90;;;;;;5081823;28;20470;-86
2023/09/14 02:32:20;;;;;;;6.13;3.30;;;17.50;99.90;;;;;;5073427;28;20505;-87
2023/09/14 02:34:50;;;;;;;5.03;3.30;;;17.40;99.90;;;;;;5083707;28;20466;-80
2023/09/14 02:37:17;;;;;;;8.80;4.50;;;17.40;99.90;;;;;;5074880;28;20462;-80
2023/09/14 02:39:44;;;;;;;15.57;13.33;;;17.30;99.90;;;;;;5077545;28;20976;-79
2023/09/14 02:42:11;;;;;;;9.77;7.30;;;17.30;99.90;;;;;;5073738;28;20466;-89
2023/09/14 02:44:38;;;;;;;4.30;3.23;;;17.30;99.90;;;;;;5073081;28;20971;-80
2023/09/14 02:47:07;;;;;;;5.13;4.63;;;17.20;99.90;;;;;;5063524;28;20975;-81
2023/09/14 02:49:34;;;;;;;3.93;3.47;;;17.20;99.90;;;;;;5075453;28;20450;-88
2023/09/14 02:52:02;;;;;;;41.30;30.70;;;17.10;99.90;;;;;;5073780;28;20545;-80
2023/09/14 02:54:29;;;;;;;25.00;22.50;;;17.10;99.90;;;;;;5070038;28;20498;-80
2023/09/14 02:56:59;;;;;;;5.67;5.10;;;17.20;99.90;;;;;;5071934;28;20471;-80
2023/09/14 02:59:26;;;;;;;4.23;3.60;;;17.20;99.90;;;;;;5074867;28;20470;-88
2023/09/14 03:01:53;;;;;;;5.33;3.60;;;17.20;99.90;;;;;;5078914;28;20466;-89
2023/09/14 03:04:23;;;;;;;6.40;5.80;;;17.20;99.90;;;;;;5072059;28;20463;-81
2023/09/14 03:06:50;;;;;;;6.43;5.40;;;17.10;99.90;;;;;;5076704;28;20487;-88
2023/09/14 03:09:18;;;;;;;11.30;7.03;;;17.00;99.90;;;;;;5073678;28;21023;-81
2023/09/14 03:11:45;;;;;;;7.23;5.00;;;17.00;99.90;;;;;;5073675;28;20501;-89
2023/09/14 03:14:15;;;;;;;5.23;4.33;;;17.00;99.90;;;;;;5073280;28;20470;-86
2023/09/14 03:16:42;;;;;;;10.33;7.60;;;16.90;99.90;;;;;;5074267;28;20493;-81
2023/09/14 03:19:12;;;;;;;4.90;4.40;;;16.90;99.90;;;;;;5073746;28;20474;-81
2023/09/14 03:21:42;;;;;;;7.57;5.50;;;16.90;99.90;;;;;;5073516;28;20458;-88
2023/09/14 03:24:09;;;;;;;5.00;3.47;;;16.80;99.90;;;;;;5073940;28;20611;-80
2023/09/14 03:26:37;;;;;;;4.27;3.40;;;16.70;99.90;;;;;;5075689;28;20525;-81
2023/09/14 03:29:08;;;;;;;4.70;3.33;;;16.70;99.90;;;;;;5073909;28;20470;-80
2023/09/14 03:31:35;;;;;;;5.53;3.87;;;16.70;99.90;;;;;;5064231;28;20485;-80
2023/09/14 03:34:07;;;;;;;4.27;3.53;;;16.60;99.90;;;;;;5074373;28;20462;-88
2023/09/14 03:36:34;;;;;;;5.37;3.57;;;16.60;99.90;;;;;;5073270;28;20470;-88
2023/09/14 03:39:01;;;;;;;9.43;6.90;;;16.50;99.90;;;;;;5074667;28;20516;-89
2023/09/14 03:41:28;;;;;;;4.40;4.00;;;16.50;99.90;;;;;;5073834;28;20481;-88
2023/09/14 03:43:56;;;;;;;4.23;3.90;;;16.50;99.90;;;;;;5073896;28;20473;-88
2023/09/14 03:46:25;;;;;;;4.30;3.30;;;16.50;99.90;;;;;;5073451;28;20466;-86
2023/09/14 03:48:52;;;;;;;5.70;3.53;;;16.40;99.90;;;;;;5074194;28;20496;-87
2023/09/14 03:51:19;;;;;;;3.03;2.73;;;16.40;99.90;;;;;;5073182;28;20494;-86
2023/09/14 03:53:46;;;;;;;5.87;4.60;;;16.30;99.90;;;;;;5082022;28;21024;-88
2023/09/14 03:56:13;;;;;;;5.70;3.80;;;16.30;99.90;;;;;;5074106;28;20557;-88
2023/09/14 03:58:42;;;;;;;5.53;4.50;;;16.30;99.90;;;;;;5074549;28;20455;-88
2023/09/14 04:01:10;;;;;;;4.67;3.93;;;16.20;99.90;;;;;;5073485;28;20482;-80
2023/09/14 04:03:37;;;;;;;7.30;6.50;;;16.30;99.90;;;;;;5071517;28;20490;-80
2023/09/14 04:06:04;;;;;;;4.70;4.20;;;16.20;99.90;;;;;;5073158;28;20553;-88
2023/09/14 04:08:33;;;;;;;4.90;4.23;;;16.20;99.90;;;;;;5077448;28;20470;-87
2023/09/14 04:11:01;;;;;;;4.03;3.67;;;16.10;99.90;;;;;;5074970;28;20542;-80
2023/09/14 04:13:34;;;;;;;8.23;4.07;;;16.10;99.90;;;;;;5071891;28;20577;-88
2023/09/14 04:16:03;;;;;;;4.30;3.90;;;16.10;99.90;;;;;;5072850;28;20473;-88
2023/09/14 04:18:35;;;;;;;6.40;4.53;;;16.10;99.90;;;;;;5063840;28;20865;-87
2023/09/14 04:21:03;;;;;;;5.40;3.47;;;16.10;99.90;;;;;;5072316;28;20461;-79
2023/09/14 04:23:30;;;;;;;5.20;4.23;;;16.00;99.90;;;;;;5076543;28;20820;-88
2023/09/14 04:25:56;;;;;;;4.80;4.13;;;16.00;99.90;;;;;;5076851;28;20465;-88
2023/09/14 04:28:27;;;;;;;6.33;4.33;;;16.10;99.90;;;;;;5077750;28;20557;-87
2023/09/14 04:30:57;;;;;;;4.10;3.70;;;16.00;99.90;;;;;;5067169;28;20486;-79
2023/09/14 04:33:26;;;;;;;7.17;4.93;;;16.00;99.90;;;;;;5068226;28;20549;-88
2023/09/14 04:35:57;;;;;;;11.50;6.20;;;16.00;99.90;;;;;;5076177;28;20481;-80
2023/09/14 04:38:28;;;;;;;5.30;4.17;;;16.00;99.90;;;;;;5075752;28;20473;-79
2023/09/14 04:40:55;;;;;;;6.10;5.07;;;16.00;99.90;;;;;;5075868;28;20490;-88
2023/09/14 04:43:24;;;;;;;5.20;4.40;;;16.00;99.90;;;;;;5076307;28;20557;-80
2023/09/14 04:45:51;;;;;;;9.50;5.83;;;16.00;99.90;;;;;;5075423;28;20551;-88
2023/09/14 04:48:17;;;;;;;6.40;5.27;;;16.00;99.90;;;;;;5076280;28;20462;-87
2023/09/14 04:50:46;;;;;;;9.23;5.30;;;16.00;99.90;;;;;;5075480;28;20802;-80
2023/09/14 04:53:15;;;;;;;7.50;5.43;;;15.90;99.90;;;;;;5076592;28;20488;-89
2023/09/14 04:55:41;;;;;;;6.20;4.73;;;16.00;99.90;;;;;;5075167;28;20470;-87
2023/09/14 04:58:11;;;;;;;8.43;4.93;;;16.00;99.90;;;;;;5076223;28;20899;-88
2023/09/14 05:00:38;;;;;;;6.10;5.03;;;16.00;99.90;;;;;;5078874;28;20477;-86
2023/09/14 05:03:05;;;;;;;5.63;4.70;;;16.00;99.90;;;;;;5090207;28;20470;-80
2023/09/14 05:05:33;;;;;;;7.57;5.47;;;16.00;99.90;;;;;;5079473;28;20867;-79
2023/09/14 05:08:02;;;;;;;7.80;6.37;;;16.00;99.90;;;;;;5075196;28;20454;-88
2023/09/14 05:10:30;;;;;;;5.83;4.53;;;16.00;99.90;;;;;;5076240;28;20458;-88
2023/09/14 05:13:02;;;;;;;5.70;4.60;;;15.90;99.90;;;;;;5076646;28;20492;-88
2023/09/14 05:15:29;;;;;;;7.20;6.23;;;15.90;99.90;;;;;;5074501;28;20467;-88
2023/09/14 05:17:56;;;;;;;6.00;5.40;;;15.90;99.90;;;;;;5076431;28;20519;-79
2023/09/14 05:20:23;;;;;;;4.60;4.10;;;15.90;99.90;;;;;;5075499;28;20968;-80
2023/09/14 05:22:50;;;;;;;7.03;4.83;;;15.90;99.90;;;;;;5065841;28;20826;-81
2023/09/14 05:25:25;;;;;;;6.80;4.37;;;15.90;99.90;;;;;;5070811;28;20541;-80
2023/09/14 05:27:54;;;;;;;6.40;3.97;;;15.80;99.90;;;;;;5054073;28;20494;-80
2023/09/14 05:30:24;;;;;;;5.30;4.23;;;15.80;99.90;;;;;;5070969;28;20454;-80
2023/09/14 05:32:52;;;;;;;7.10;4.47;;;15.90;99.90;;;;;;5074326;28;20474;-80
2023/09/14 05:35:19;;;;;;;4.77;3.90;;;15.90;99.90;;;;;;5074511;28;20501;-80
2023/09/14 05:37:46;;;;;;;5.83;4.37;;;15.90;99.90;;;;;;5074571;28;20471;-80
2023/09/14 05:40:13;;;;;;;6.00;4.33;;;15.90;99.90;;;;;;5077216;28;20455;-87
2023/09/14 05:45:51;;;;;;;5.70;4.60;;;15.90;99.90;;;;;;5068789;28;20455;-87
2023/09/14 05:48:18;;;;;;;4.47;3.90;;;15.90;99.90;;;;;;5075551;28;20472;-87
2023/09/14 05:51:25;;;;;;;5.87;3.83;;;15.90;99.90;;;;;;5066346;28;20485;-81
2023/09/14 05:53:54;;;;;;;5.80;3.20;;;15.90;99.90;;;;;;4980540;28;20603;-80
2023/09/14 05:56:22;;;;;;;4.03;3.50;;;16.00;99.90;;;;;;5026681;28;20471;-87
2023/09/14 05:58:50;;;;;;;6.40;4.47;;;16.00;99.90;;;;;;5075328;28;20527;-87
2023/09/14 06:01:18;;;;;;;5.60;4.10;;;16.00;99.90;;;;;;5078902;28;20470;-86
2023/09/14 06:03:45;;;;;;;5.43;4.13;;;16.00;99.90;;;;;;5077603;28;20548;-88
2023/09/14 06:06:15;;;;;;;5.27;4.80;;;16.10;99.90;;;;;;5075733;28;20505;-88
2023/09/14 06:08:42;;;;;;;7.47;5.10;;;16.10;99.90;;;;;;5074121;28;20472;-81
2023/09/14 06:11:09;;;;;;;8.30;4.80;;;16.10;99.90;;;;;;5075228;28;20493;-80
2023/09/14 06:13:36;;;;;;;5.73;4.60;;;16.10;99.90;;;;;;5074513;28;20494;-87
2023/09/14 06:16:07;;;;;;;5.30;4.27;;;16.10;99.90;;;;;;5073333;28;20470;-87
2023/09/14 06:18:37;;;;;;;7.13;4.90;;;16.10;99.90;;;;;;5074954;28;20466;-87
2023/09/14 06:21:04;;;;;;;6.80;4.20;;;16.20;99.90;;;;;;5074221;28;21033;-87
2023/09/14 06:23:31;;;;;;;6.13;3.83;;;16.10;99.90;;;;;;5074140;28;20477;-80
2023/09/14 06:25:58;;;;;;;4.50;4.10;;;16.10;99.90;;;;;;5073117;28;20545;-87
2023/09/14 06:28:25;;;;;;;4.20;3.57;;;16.10;99.90;;;;;;5074589;28;20558;-87
2023/09/14 06:30:52;;;;;;;4.40;3.70;;;16.20;99.90;;;;;;5074682;28;20466;-86
2023/09/14 06:33:23;;;;;;;4.80;3.83;;;16.20;99.90;;;;;;5073768;28;20549;-87
2023/09/14 06:35:53;;;;;;;7.97;4.10;;;16.20;99.90;;;;;;5074135;28;20482;-87
2023/09/14 06:38:20;;;;;;;4.17;3.50;;;16.30;99.90;;;;;;5063875;28;20509;-87
2023/09/14 06:40:47;;;;;;;5.23;4.73;;;16.30;99.90;;;;;;5066633;28;20559;-87
2023/09/14 06:43:14;;;;;;;4.43;3.97;;;16.30;99.90;;;;;;5073073;28;20477;-87
2023/09/14 06:45:44;;;;;;;3.87;3.50;;;16.30;99.90;;;;;;5074274;28;20818;-87
2023/09/14 06:48:13;;;;;;;7.30;3.77;;;16.40;99.90;;;;;;5073466;28;20528;-87
2023/09/14 06:50:46;;;;;;;4.77;3.63;;;16.40;99.90;;;;;;5074024;28;20496;-87
2023/09/14 06:53:13;;;;;;;5.00;3.53;;;16.40;99.90;;;;;;5073606;28;20498;-87
2023/09/14 06:55:40;;;;;;;5.83;4.10;;;16.50;99.90;;;;;;5073972;28;20545;-87
2023/09/14 06:58:09;;;;;;;6.57;3.80;;;16.50;99.90;;;;;;5073923;28;20470;-87
2023/09/14 07:00:37;;;;;;;4.30;3.90;;;16.60;99.90;;;;;;5074799;28;20532;-88
2023/09/14 07:03:04;;;;;;;3.43;3.00;;;16.60;99.90;;;;;;5073844;28;20838;-87
2023/09/14 07:05:33;;;;;;;6.27;3.20;;;16.70;99.90;;;;;;5074408;28;20535;-88
2023/09/14 07:08:02;;;;;;;5.23;3.60;;;16.70;99.90;;;;;;5073733;28;20494;-85
2023/09/14 07:10:29;;;;;;;4.77;3.70;;;16.70;99.90;;;;;;5074268;28;20462;-87
2023/09/14 07:13:01;;;;;;;5.07;3.70;;;16.80;99.90;;;;;;5073892;28;20474;-87
2023/09/14 07:15:28;;;;;;;4.50;4.03;;;16.80;99.90;;;;;;5073699;28;20473;-87
2023/09/14 07:17:55;;;;;;;3.80;3.40;;;16.90;99.90;;;;;;5073839;28;20489;-81
2023/09/14 07:20:22;;;;;;;4.80;3.13;;;16.90;99.90;;;;;;5060148;28;20493;-80
2023/09/14 07:22:49;;;;;;;4.00;3.53;;;17.00;99.90;;;;;;5069596;28;20535;-80
2023/09/14 07:25:17;;;;;;;4.73;2.90;;;17.00;99.90;;;;;;5072182;28;20873;-80
2023/09/14 07:27:44;;;;;;;3.77;2.80;;;17.10;99.90;;;;;;5071732;28;20545;-80
2023/09/14 07:30:14;;;;;;;4.40;4.00;;;17.20;99.90;;;;;;5074948;28;20466;-88
2023/09/14 07:32:41;;;;;;;8.50;6.60;;;17.20;99.90;;;;;;5075240;28;20471;-88
2023/09/14 07:35:10;;;;;;;6.87;4.53;;;17.30;99.90;;;;;;5076977;28;20531;-87
2023/09/14 07:37:37;;;;;;;10.17;7.53;;;17.30;99.90;;;;;;5075026;28;20476;-87
2023/09/14 07:40:06;;;;;;;5.10;4.23;;;17.40;99.90;;;;;;5063053;28;20474;-87
2023/09/14 07:42:34;;;;;;;3.40;2.70;;;17.40;99.90;;;;;;5073519;28;20815;-88
2023/09/14 07:45:01;;;;;;;6.23;3.60;;;17.50;99.90;;;;;;5072788;28;20501;-87
2023/09/14 07:47:31;;;;;;;4.50;3.43;;;17.50;99.90;;;;;;5060407;28;20466;-86
2023/09/14 07:49:58;;;;;;;5.00;4.50;;;17.60;99.90;;;;;;5073676;28;20520;-87
2023/09/14 07:52:25;;;;;;;4.03;3.63;;;17.70;99.90;;;;;;5073461;28;20477;-87
2023/09/14 07:54:54;;;;;;;3.87;3.00;;;17.70;99.90;;;;;;5065985;28;21002;-88
2023/09/14 07:57:24;;;;;;;3.43;2.60;;;17.80;99.90;;;;;;5069159;28;20498;-80
2023/09/14 08:02:36;;;;;;;4.70;3.43;;;17.90;99.90;;;;;;5048071;28;20801;-88
2023/09/14 08:05:03;;;;;;;3.77;3.10;;;18.00;99.90;;;;;;5075813;28;20490;-80
2023/09/14 08:07:30;;;;;;;3.07;2.10;;;18.00;99.90;;;;;;5076513;28;20458;-80
2023/09/14 08:09:57;;;;;;;3.23;2.90;;;18.10;99.90;;;;;;5075850;28;21020;-80
2023/09/14 08:12:24;;;;;;;3.47;3.17;;;18.20;99.90;;;;;;5076422;28;20549;-80
2023/09/14 08:14:56;;;;;;;4.03;2.90;;;18.30;99.90;;;;;;5075775;28;20490;-80
2023/09/14 08:17:23;;;;;;;2.70;2.50;;;18.30;99.90;;;;;;5076169;28;20541;-80
2023/09/14 08:19:50;;;;;;;5.97;2.67;;;18.40;99.90;;;;;;5066312;28;20501;-88
2023/09/14 08:22:22;;;;;;;2.83;2.50;;;18.40;99.90;;;;;;5076196;28;20961;-89
2023/09/14 08:24:49;;;;;;;3.67;2.47;;;18.50;99.90;;;;;;5075812;28;20470;-81
2023/09/14 08:27:15;;;;;;;2.93;2.20;;;18.60;99.90;;;;;;5076213;28;20967;-81
2023/09/14 08:29:43;;;;;;;6.93;3.27;;;18.60;99.90;;;;;;5078498;28;20462;-88
2023/09/14 08:32:12;;;;;;;4.63;3.07;;;18.60;99.90;;;;;;5079905;28;20460;-88
2023/09/14 08:34:39;;;;;;;3.90;2.80;;;18.60;99.90;;;;;;5079738;28;20532;-89
2023/09/14 08:37:10;;;;;;;2.63;2.43;;;18.70;99.90;;;;;;5078586;28;20501;-88
2023/09/14 08:39:38;;;;;;;2.53;2.33;;;18.70;99.90;;;;;;5080210;28;20812;-81
2023/09/14 08:42:08;;;;;;;3.43;2.33;;;18.80;99.90;;;;;;5076360;28;20496;-81
2023/09/14 08:44:36;;;;;;;3.20;2.57;;;18.90;99.90;;;;;;5075862;28;20474;-89
2023/09/14 08:47:03;;;;;;;5.20;1.97;;;18.90;99.90;;;;;;5075743;28;20799;-89
2023/09/14 08:49:38;;;;;;;2.10;1.90;;;19.00;99.90;;;;;;5076267;28;20486;-88
2023/09/14 08:52:10;;;;;;;2.10;1.90;;;19.00;99.90;;;;;;5075132;28;20485;-87
2023/09/14 08:54:37;;;;;;;3.77;2.33;;;19.10;99.90;;;;;;5076105;28;20819;-80
2023/09/14 08:57:09;;;;;;;2.60;2.17;;;19.10;99.90;;;;;;5074878;28;20473;-81
2023/09/14 08:59:40;;;;;;;3.40;2.20;;;19.20;99.90;;;;;;5075145;28;20484;-80
2023/09/14 09:02:12;;;;;;;3.43;2.40;;;19.30;99.90;;;;;;5064870;28;20470;-81
2023/09/14 09:04:43;;;;;;;2.83;2.13;;;19.30;99.90;;;;;;5076828;28;20586;-87
2023/09/14 09:07:13;;;;;;;3.80;2.50;;;19.30;99.90;;;;;;5076825;28;20470;-87
2023/09/14 09:09:40;;;;;;;3.87;2.27;;;19.40;99.90;;;;;;5077349;28;20528;-88
2023/09/14 09:12:08;;;;;;;2.30;2.10;;;19.50;99.90;;;;;;5077527;28;20557;-88
2023/09/14 09:14:38;;;;;;;2.23;1.80;;;19.50;99.90;;;;;;5077065;28;20492;-88
2023/09/14 09:17:06;;;;;;;2.67;2.30;;;19.60;99.90;;;;;;5074945;28;20471;-82
2023/09/14 09:19:52;;;;;;;2.40;2.17;;;19.60;99.90;;;;;;5075331;28;20520;-82
2023/09/14 09:22:19;;;;;;;2.63;1.97;;;19.70;99.90;;;;;;5075013;28;20462;-82
2023/09/14 09:24:47;;;;;;;4.77;3.03;;;19.70;99.90;;;;;;5075315;28;20474;-89
2023/09/14 09:27:26;;;;;;;4.23;2.50;;;19.70;99.90;;;;;;5075144;28;20470;-89
2023/09/14 09:30:01;;;;;;;4.10;2.50;;;19.80;99.90;;;;;;5075133;28;20517;-90
2023/09/14 09:32:34;;;;;;;3.57;1.83;;;19.80;99.90;;;;;;5075522;28;20454;-90
2023/09/14 09:35:19;;;;;;;4.70;2.40;;;19.90;99.90;;;;;;5063321;28;20577;-83
2023/09/14 09:37:56;;;;;;;2.57;1.97;;;19.90;99.90;;;;;;5072519;28;20462;-90
2023/09/14 09:40:35;;;;;;;2.33;1.93;;;19.90;99.90;;;;;;5067430;28;20462;-82
2023/09/14 09:46:05;;;;;;;3.50;2.80;;;20.10;99.90;;;;;;5053116;28;20517;-83
2023/09/14 09:48:33;;;;;;;6.30;3.20;;;20.10;99.90;;;;;;5046205;28;20465;-89
2023/09/14 09:54:07;;;;;;;6.93;2.73;;;20.10;99.90;;;;;;5050479;28;20463;-89
2023/09/14 09:59:17;;;;;;;4.53;3.00;;;20.10;99.90;;;;;;5020038;28;20455;-90
2023/09/14 10:01:49;;;;;;;4.23;2.40;;;20.20;99.90;;;;;;5038325;28;20794;-88
2023/09/14 10:04:17;;;;;;;4.53;2.20;;;20.20;99.90;;;;;;5053321;28;20475;-88
2023/09/14 10:07:08;;;;;;;2.80;2.53;;;20.20;99.90;;;;;;5053807;28;20460;-88
2023/09/14 10:09:42;;;;;;;5.47;4.43;;;20.20;99.90;;;;;;5038051;28;20471;-88
2023/09/14 10:12:11;;;;;;;3.53;2.83;;;20.20;99.90;;;;;;5054599;28;21022;-82
2023/09/14 10:14:40;;;;;;;2.60;2.40;;;20.20;99.90;;;;;;5054721;28;20501;-88
2023/09/14 10:17:10;;;;;;;2.27;1.80;;;20.20;99.90;;;;;;5052644;28;20555;-82
2023/09/14 10:19:46;;;;;;;1.53;1.43;;;20.20;99.90;;;;;;5054392;28;20467;-83
2023/09/14 10:22:15;;;;;;;2.20;1.80;;;20.20;99.90;;;;;;5054249;28;20495;-82
2023/09/14 10:24:43;;;;;;;2.20;1.97;;;20.10;99.90;;;;;;5053412;28;20506;-82
2023/09/14 10:27:11;;;;;;;1.70;1.47;;;20.10;99.90;;;;;;5054211;28;20469;-82
2023/09/14 10:29:42;;;;;;;1.90;1.70;;;20.10;99.90;;;;;;5053926;28;20491;-88
2023/09/14 10:32:11;;;;;;;3.63;2.00;;;20.10;99.90;;;;;;5054403;28;20459;-88
2023/09/14 10:34:40;;;;;;;2.43;1.70;;;20.10;99.90;;;;;;5053469;28;20540;-88
2023/09/14 10:37:09;;;;;;;3.20;2.07;;;20.10;99.90;;;;;;5054071;28;20770;-88
2023/09/14 10:39:40;;;;;;;3.60;2.50;;;20.10;99.90;;;;;;5053614;28;20471;-82
2023/09/14 10:42:08;;;;;;;3.57;3.27;;;20.10;99.90;;;;;;5053278;28;20529;-88
2023/09/14 10:44:40;;;;;;;3.83;2.53;;;20.20;99.90;;;;;;5053642;28;20907;-81
2023/09/14 10:47:16;;;;;;;6.47;2.50;;;20.30;99.90;;;;;;5053401;28;20554;-88
2023/09/14 10:49:47;;;;;;;2.77;2.10;;;20.40;99.90;;;;;;5043043;28;20473;-88
2023/09/14 10:52:23;;;;;;;3.63;1.90;;;20.50;99.90;;;;;;5042125;28;20483;-89
2023/09/14 10:54:55;;;;;;;2.33;2.10;;;20.60;99.90;;;;;;5048965;28;20964;-88
2023/09/14 10:57:24;;;;;;;3.20;2.10;;;20.60;99.90;;;;;;5045205;28;20471;-82
2023/09/14 10:59:52;;;;;;;2.80;2.17;;;20.70;99.90;;;;;;5052199;28;20470;-82
2023/09/14 11:02:59;;;;;;;3.30;2.00;;;20.80;99.90;;;;;;5053249;28;20491;-88
2023/09/14 11:05:27;;;;;;;1.83;1.73;;;20.90;99.90;;;;;;5044538;28;21014;-82
2023/09/14 11:08:03;;;;;;;1.57;1.47;;;21.00;99.90;;;;;;5053437;28;20467;-82
2023/09/14 11:10:37;;;;;;;5.90;1.97;;;21.00;99.90;;;;;;5043671;28;20501;-86
2023/09/14 11:13:30;;;;;;;2.07;1.67;;;21.10;99.90;;;;;;5046650;28;20530;-88
2023/09/14 11:16:13;;;;;;;2.33;1.60;;;21.20;99.90;;;;;;5053970;28;20468;-88
2023/09/14 11:18:55;;;;;;;1.87;1.67;;;21.20;99.90;;;;;;5053601;28;20486;-87
2023/09/14 11:21:47;;;;;;;2.30;1.90;;;21.30;99.90;;;;;;5043598;28;20477;-88
2023/09/14 11:24:14;;;;;;;2.70;2.37;;;21.40;99.90;;;;;;5050183;28;20479;-89
2023/09/14 11:26:50;;;;;;;3.70;1.97;;;21.50;99.90;;;;;;5053245;28;20744;-82
2023/09/14 11:29:26;;;;;;;3.40;1.70;;;21.60;99.90;;;;;;5051459;28;20772;-82
2023/09/14 11:31:57;;;;;;;8.20;7.40;;;21.60;99.90;;;;;;5043949;28;20502;-82
2023/09/14 11:34:38;;;;;;;7.27;6.47;;;21.70;99.90;;;;;;5044339;28;20475;-83
2023/09/14 11:37:17;;;;;;;6.40;3.73;;;21.60;99.90;;;;;;5041174;28;20463;-82
2023/09/14 11:40:00;;;;;;;2.40;2.20;;;21.70;99.90;;;;;;5048449;28;20463;-88
2023/09/14 11:43:28;;;;;;;2.63;2.03;;;21.70;99.90;;;;;;5045638;28;20834;-88
2023/09/14 11:46:10;;;;;;;2.80;2.13;;;21.70;99.90;;;;;;5052559;28;20467;-88
2023/09/14 11:48:48;;;;;;;2.00;1.80;;;21.70;99.90;;;;;;5052767;28;20554;-87
2023/09/14 11:51:24;;;;;;;4.70;2.03;;;21.70;99.90;;;;;;5052432;28;20460;-87
2023/09/14 11:53:59;;;;;;;3.73;1.70;;;21.70;99.90;;;;;;5052148;28;20574;-81
2023/09/14 11:56:29;;;;;;;2.40;2.20;;;21.70;99.90;;;;;;5052829;28;20775;-87
2023/09/14 11:59:00;;;;;;;2.07;1.87;;;21.70;99.90;;;;;;5052056;28;20474;-82
2023/09/14 12:01:27;;;;;;;3.50;2.00;;;21.70;99.90;;;;;;5041963;28;20533;-81
2023/09/14 12:04:02;;;;;;;3.70;2.10;;;21.70;99.90;;;;;;5051306;28;20487;-82
2023/09/14 12:06:29;;;;;;;3.73;2.03;;;21.70;99.90;;;;;;5044164;28;20469;-82
2023/09/14 12:08:57;;;;;;;2.30;2.10;;;21.70;99.90;;;;;;5051360;28;20542;-86
2023/09/14 12:11:27;;;;;;;2.70;2.50;;;21.70;99.80;;;;;;5052563;28;20471;-87
2023/09/14 12:13:57;;;;;;;4.07;1.97;;;21.70;99.20;;;;;;5051729;28;20467;-88
2023/09/14 12:16:27;;;;;;;2.20;1.40;;;21.60;99.30;;;;;;5051559;28;20972;-81
2023/09/14 12:19:00;;;;;;;2.00;1.80;;;21.60;98.80;;;;;;5047194;28;20545;-81
2023/09/14 12:21:27;;;;;;;2.43;1.53;;;21.50;99.00;;;;;;5031175;28;20483;-81
2023/09/14 12:24:15;;;;;;;3.03;2.37;;;21.50;99.20;;;;;;5046514;28;20468;-87
2023/09/14 12:26:42;;;;;;;1.70;1.53;;;21.50;99.30;;;;;;5053335;28;20463;-87
2023/09/14 12:29:10;;;;;;;1.60;1.50;;;21.50;99.60;;;;;;5052255;28;20490;-88
2023/09/14 12:31:41;;;;;;;2.77;1.80;;;21.40;98.90;;;;;;5044966;28;20475;-88
2023/09/14 12:34:28;;;;;;;;;;;;;;;;;;;;;
2023/09/14 12:36:55;;;;;;;3.17;2.97;;;21.40;99.50;;;;;;5060006;28;20478;-87
2023/09/14 12:39:22;;;;;;;2.60;2.40;;;21.30;99.90;;;;;;5064284;28;20462;-88
2023/09/14 12:42:17;;;;;;;3.23;2.93;;;21.40;99.90;;;;;;5064881;28;20471;-87
2023/09/14 12:44:54;;;;;;;6.23;3.07;;;21.40;99.30;;;;;;5039454;28;20481;-81
2023/09/14 12:47:25;;;;;;;5.17;4.07;;;21.40;99.30;;;;;;5063078;28;20492;-81
2023/09/14 12:50:02;;;;;;;3.03;2.63;;;21.40;99.70;;;;;;5067827;28;20461;-80
2023/09/14 12:52:32;;;;;;;3.90;2.50;;;21.40;99.60;;;;;;5080659;28;20492;-86
2023/09/14 12:55:12;;;;;;;4.07;3.67;;;21.50;99.70;;;;;;5076396;28;20474;-87
2023/09/14 12:57:49;;;;;;;4.60;4.20;;;21.50;99.80;;;;;;5079023;28;20524;-86
2023/09/14 13:00:27;;;;;;;3.73;3.43;;;21.50;99.60;;;;;;5047805;28;20771;-82
2023/09/14 13:02:58;;;;;;;4.43;2.27;;;21.50;99.30;;;;;;5066165;28;20541;-82
2023/09/14 13:05:25;;;;;;;2.37;2.17;;;21.50;99.10;;;;;;5068174;28;20467;-87
2023/09/14 13:08:04;;;;;;;2.00;1.90;;;21.50;99.10;;;;;;5077077;28;20584;-88
2023/09/14 13:13:55;;;;;;;2.57;2.37;;;21.50;99.50;;;;;;5060025;28;20469;-81
2023/09/14 13:16:27;;;;;;;48.73;43.50;;;21.50;99.70;;;;;;5071607;28;20546;-82
2023/09/14 13:18:58;;;;;;;37.37;33.73;;;21.50;99.90;;;;;;5074616;28;20959;-83